sensor_id;sensor_type;location;lat;lon;timestamp;P1;durP1;ratioP1;P2;durP2;ratioP2
6013;SDS011;3035;49.928;8.410;2023-04-28T00:02:27;8.00;;;4.00;;
6013;SDS011;3035;49.928;8.410;2023-04-28T00:04:55;8.63;;;3.87;;
6013;SDS011;3035;49.928;8.410;2023-04-28T00:07:23;5.83;;;3.27;;
6013;SDS011;3035;49.928;8.410;2023-04-28T00:09:51;8.93;;;3.90;;
6013;SDS011;3035;49.928;8.410;2023-04-28T00:12:19;6.70;;;3.40;;
6013;SDS011;3035;49.928;8.410;2023-04-28T00:14:48;7.90;;;3.80;;
6013;SDS011;3035;49.928;8.410;2023-04-28T00:17:16;11.13;;;3.30;;
6013;SDS011;3035;49.928;8.410;2023-04-28T00:19:44;9.90;;;3.13;;
6013;SDS011;3035;49.928;8.410;2023-04-28T00:22:13;8.03;;;4.10;;
6013;SDS011;3035;49.928;8.410;2023-04-28T00:24:43;7.77;;;3.60;;
6013;SDS011;3035;49.928;8.410;2023-04-28T00:27:11;4.20;;;3.13;;
6013;SDS011;3035;49.928;8.410;2023-04-28T00:29:40;9.13;;;3.30;;
6013;SDS011;3035;49.928;8.410;2023-04-28T00:32:08;8.23;;;3.97;;
6013;SDS011;3035;49.928;8.410;2023-04-28T00:34:36;9.40;;;3.67;;
6013;SDS011;3035;49.928;8.410;2023-04-28T00:37:05;9.67;;;3.30;;
6013;SDS011;3035;49.928;8.410;2023-04-28T00:39:33;4.83;;;3.50;;
6013;SDS011;3035;49.928;8.410;2023-04-28T00:42:01;4.60;;;3.07;;
6013;SDS011;3035;49.928;8.410;2023-04-28T00:44:30;12.43;;;3.63;;
6013;SDS011;3035;49.928;8.410;2023-04-28T00:46:59;6.93;;;3.67;;
6013;SDS011;3035;49.928;8.410;2023-04-28T00:49:27;9.37;;;3.83;;
6013;SDS011;3035;49.928;8.410;2023-04-28T00:51:55;7.57;;;3.33;;
6013;SDS011;3035;49.928;8.410;2023-04-28T00:54:23;10.10;;;4.00;;
6013;SDS011;3035;49.928;8.410;2023-04-28T00:56:51;8.27;;;3.40;;
6013;SDS011;3035;49.928;8.410;2023-04-28T00:59:21;6.20;;;3.30;;
6013;SDS011;3035;49.928;8.410;2023-04-28T01:01:49;10.30;;;3.47;;
6013;SDS011;3035;49.928;8.410;2023-04-28T01:04:19;8.27;;;4.10;;
6013;SDS011;3035;49.928;8.410;2023-04-28T01:06:46;5.70;;;3.43;;
6013;SDS011;3035;49.928;8.410;2023-04-28T01:09:14;6.30;;;3.77;;
6013;SDS011;3035;49.928;8.410;2023-04-28T01:11:43;4.47;;;3.23;;
6013;SDS011;3035;49.928;8.410;2023-04-28T01:14:12;7.07;;;3.63;;
6013;SDS011;3035;49.928;8.410;2023-04-28T01:16:40;9.20;;;4.10;;
6013;SDS011;3035;49.928;8.410;2023-04-28T01:19:10;8.53;;;4.07;;
6013;SDS011;3035;49.928;8.410;2023-04-28T01:21:37;5.40;;;3.43;;
6013;SDS011;3035;49.928;8.410;2023-04-28T01:24:05;5.57;;;4.23;;
6013;SDS011;3035;49.928;8.410;2023-04-28T01:26:34;4.00;;;3.20;;
6013;SDS011;3035;49.928;8.410;2023-04-28T01:29:03;6.30;;;3.80;;
6013;SDS011;3035;49.928;8.410;2023-04-28T01:31:31;9.90;;;3.53;;
6013;SDS011;3035;49.928;8.410;2023-04-28T01:33:59;6.10;;;4.00;;
6013;SDS011;3035;49.928;8.410;2023-04-28T01:36:28;8.13;;;3.37;;
6013;SDS011;3035;49.928;8.410;2023-04-28T01:38:57;9.33;;;4.20;;
6013;SDS011;3035;49.928;8.410;2023-04-28T01:41:26;8.70;;;3.67;;
6013;SDS011;3035;49.928;8.410;2023-04-28T01:43:54;11.73;;;4.37;;
6013;SDS011;3035;49.928;8.410;2023-04-28T01:46:22;7.17;;;3.93;;
6013;SDS011;3035;49.928;8.410;2023-04-28T01:48:51;7.20;;;4.07;;
6013;SDS011;3035;49.928;8.410;2023-04-28T01:51:19;10.40;;;3.87;;
6013;SDS011;3035;49.928;8.410;2023-04-28T01:53:48;11.17;;;3.70;;
6013;SDS011;3035;49.928;8.410;2023-04-28T01:56:16;6.83;;;3.70;;
6013;SDS011;3035;49.928;8.410;2023-04-28T01:58:44;9.50;;;3.90;;
6013;SDS011;3035;49.928;8.410;2023-04-28T02:01:12;4.40;;;4.00;;
6013;SDS011;3035;49.928;8.410;2023-04-28T02:03:41;7.00;;;3.97;;
6013;SDS011;3035;49.928;8.410;2023-04-28T02:06:10;4.80;;;3.73;;
6013;SDS011;3035;49.928;8.410;2023-04-28T02:08:39;6.40;;;4.17;;
6013;SDS011;3035;49.928;8.410;2023-04-28T02:11:07;7.00;;;3.80;;
6013;SDS011;3035;49.928;8.410;2023-04-28T02:13:35;10.93;;;4.03;;
6013;SDS011;3035;49.928;8.410;2023-04-28T02:16:04;6.37;;;3.67;;
6013;SDS011;3035;49.928;8.410;2023-04-28T02:18:33;4.33;;;3.27;;
6013;SDS011;3035;49.928;8.410;2023-04-28T02:21:07;5.20;;;3.90;;
6013;SDS011;3035;49.928;8.410;2023-04-28T02:23:37;12.33;;;4.13;;
6013;SDS011;3035;49.928;8.410;2023-04-28T02:26:05;6.67;;;4.10;;
6013;SDS011;3035;49.928;8.410;2023-04-28T02:28:33;7.83;;;4.97;;
6013;SDS011;3035;49.928;8.410;2023-04-28T02:31:04;16.53;;;4.40;;
6013;SDS011;3035;49.928;8.410;2023-04-28T02:33:35;11.23;;;4.97;;
6013;SDS011;3035;49.928;8.410;2023-04-28T02:36:04;6.17;;;4.20;;
6013;SDS011;3035;49.928;8.410;2023-04-28T02:38:34;7.53;;;4.23;;
6013;SDS011;3035;49.928;8.410;2023-04-28T02:41:03;7.30;;;3.47;;
6013;SDS011;3035;49.928;8.410;2023-04-28T02:43:31;11.37;;;4.50;;
6013;SDS011;3035;49.928;8.410;2023-04-28T02:45:59;4.43;;;4.03;;
6013;SDS011;3035;49.928;8.410;2023-04-28T02:48:27;9.20;;;4.33;;
6013;SDS011;3035;49.928;8.410;2023-04-28T02:50:56;6.67;;;4.33;;
6013;SDS011;3035;49.928;8.410;2023-04-28T02:53:24;8.93;;;4.47;;
6013;SDS011;3035;49.928;8.410;2023-04-28T02:55:53;9.60;;;4.43;;
6013;SDS011;3035;49.928;8.410;2023-04-28T02:58:21;4.93;;;4.27;;
6013;SDS011;3035;49.928;8.410;2023-04-28T03:00:50;6.13;;;4.53;;
6013;SDS011;3035;49.928;8.410;2023-04-28T03:03:18;10.30;;;4.13;;
6013;SDS011;3035;49.928;8.410;2023-04-28T03:05:47;10.23;;;4.47;;
6013;SDS011;3035;49.928;8.410;2023-04-28T03:08:15;13.80;;;4.83;;
6013;SDS011;3035;49.928;8.410;2023-04-28T03:10:44;6.87;;;4.73;;
6013;SDS011;3035;49.928;8.410;2023-04-28T03:13:13;8.67;;;4.13;;
6013;SDS011;3035;49.928;8.410;2023-04-28T03:15:41;7.63;;;4.13;;
6013;SDS011;3035;49.928;8.410;2023-04-28T03:18:09;12.80;;;4.10;;
6013;SDS011;3035;49.928;8.410;2023-04-28T03:20:37;10.73;;;5.20;;
6013;SDS011;3035;49.928;8.410;2023-04-28T03:23:05;9.73;;;4.80;;
6013;SDS011;3035;49.928;8.410;2023-04-28T03:25:34;9.07;;;4.50;;
6013;SDS011;3035;49.928;8.410;2023-04-28T03:28:03;8.60;;;5.00;;
6013;SDS011;3035;49.928;8.410;2023-04-28T03:30:32;13.20;;;4.67;;
6013;SDS011;3035;49.928;8.410;2023-04-28T03:33:00;8.40;;;5.20;;
6013;SDS011;3035;49.928;8.410;2023-04-28T03:35:28;7.53;;;4.87;;
6013;SDS011;3035;49.928;8.410;2023-04-28T03:37:56;5.40;;;4.80;;
6013;SDS011;3035;49.928;8.410;2023-04-28T03:40:25;7.60;;;5.33;;
6013;SDS011;3035;49.928;8.410;2023-04-28T03:42:54;10.20;;;5.20;;
6013;SDS011;3035;49.928;8.410;2023-04-28T03:45:22;6.70;;;4.83;;
6013;SDS011;3035;49.928;8.410;2023-04-28T03:47:50;9.20;;;5.13;;
6013;SDS011;3035;49.928;8.410;2023-04-28T03:50:19;9.50;;;5.33;;
6013;SDS011;3035;49.928;8.410;2023-04-28T03:52:47;6.73;;;4.27;;
6013;SDS011;3035;49.928;8.410;2023-04-28T03:55:16;7.10;;;5.30;;
6013;SDS011;3035;49.928;8.410;2023-04-28T03:57:45;9.80;;;4.93;;
6013;SDS011;3035;49.928;8.410;2023-04-28T04:00:13;9.50;;;5.47;;
6013;SDS011;3035;49.928;8.410;2023-04-28T04:02:41;18.00;;;6.00;;
6013;SDS011;3035;49.928;8.410;2023-04-28T04:05:09;6.10;;;4.10;;
6013;SDS011;3035;49.928;8.410;2023-04-28T04:07:38;8.90;;;4.90;;
6013;SDS011;3035;49.928;8.410;2023-04-28T04:10:06;20.67;;;5.23;;
6013;SDS011;3035;49.928;8.410;2023-04-28T04:12:36;6.80;;;4.70;;
6013;SDS011;3035;49.928;8.410;2023-04-28T04:15:04;10.60;;;5.73;;
6013;SDS011;3035;49.928;8.410;2023-04-28T04:17:34;10.73;;;5.40;;
6013;SDS011;3035;49.928;8.410;2023-04-28T04:20:02;6.93;;;4.97;;
6013;SDS011;3035;49.928;8.410;2023-04-28T04:22:31;11.47;;;6.63;;
6013;SDS011;3035;49.928;8.410;2023-04-28T04:24:59;9.10;;;4.87;;
6013;SDS011;3035;49.928;8.410;2023-04-28T04:27:28;9.30;;;4.90;;
6013;SDS011;3035;49.928;8.410;2023-04-28T04:29:56;8.30;;;5.23;;
6013;SDS011;3035;49.928;8.410;2023-04-28T04:32:24;10.90;;;5.50;;
6013;SDS011;3035;49.928;8.410;2023-04-28T04:34:53;10.67;;;4.87;;
6013;SDS011;3035;49.928;8.410;2023-04-28T04:37:21;12.57;;;5.90;;
6013;SDS011;3035;49.928;8.410;2023-04-28T04:39:49;7.60;;;5.70;;
6013;SDS011;3035;49.928;8.410;2023-04-28T04:42:18;12.53;;;5.20;;
6013;SDS011;3035;49.928;8.410;2023-04-28T04:44:48;8.27;;;5.07;;
6013;SDS011;3035;49.928;8.410;2023-04-28T04:47:16;6.60;;;5.50;;
6013;SDS011;3035;49.928;8.410;2023-04-28T04:49:44;11.23;;;4.77;;
6013;SDS011;3035;49.928;8.410;2023-04-28T04:52:13;10.60;;;6.10;;
6013;SDS011;3035;49.928;8.410;2023-04-28T04:54:41;8.60;;;4.77;;
6013;SDS011;3035;49.928;8.410;2023-04-28T04:57:10;6.53;;;5.00;;
6013;SDS011;3035;49.928;8.410;2023-04-28T04:59:38;7.60;;;5.10;;
6013;SDS011;3035;49.928;8.410;2023-04-28T05:02:07;8.27;;;5.23;;
6013;SDS011;3035;49.928;8.410;2023-04-28T05:04:35;8.63;;;4.77;;
6013;SDS011;3035;49.928;8.410;2023-04-28T05:07:03;9.23;;;4.97;;
6013;SDS011;3035;49.928;8.410;2023-04-28T05:09:31;6.73;;;4.77;;
6013;SDS011;3035;49.928;8.410;2023-04-28T05:12:00;12.57;;;5.73;;
6013;SDS011;3035;49.928;8.410;2023-04-28T05:14:28;10.00;;;6.80;;
6013;SDS011;3035;49.928;8.410;2023-04-28T05:16:57;9.30;;;7.87;;
6013;SDS011;3035;49.928;8.410;2023-04-28T05:19:25;16.93;;;9.70;;
6013;SDS011;3035;49.928;8.410;2023-04-28T05:21:54;19.20;;;11.23;;
6013;SDS011;3035;49.928;8.410;2023-04-28T05:24:23;28.93;;;14.93;;
6013;SDS011;3035;49.928;8.410;2023-04-28T05:26:52;18.20;;;12.13;;
6013;SDS011;3035;49.928;8.410;2023-04-28T05:29:20;24.27;;;14.33;;
6013;SDS011;3035;49.928;8.410;2023-04-28T05:31:49;22.67;;;13.67;;
6013;SDS011;3035;49.928;8.410;2023-04-28T05:34:17;12.00;;;7.50;;
6013;SDS011;3035;49.928;8.410;2023-04-28T05:36:45;10.60;;;6.03;;
6013;SDS011;3035;49.928;8.410;2023-04-28T05:39:13;8.20;;;6.10;;
6013;SDS011;3035;49.928;8.410;2023-04-28T05:41:42;7.63;;;6.13;;
6013;SDS011;3035;49.928;8.410;2023-04-28T05:44:10;9.50;;;5.80;;
6013;SDS011;3035;49.928;8.410;2023-04-28T05:46:38;9.33;;;6.33;;
6013;SDS011;3035;49.928;8.410;2023-04-28T05:49:07;8.23;;;6.20;;
6013;SDS011;3035;49.928;8.410;2023-04-28T05:51:35;9.13;;;6.40;;
6013;SDS011;3035;49.928;8.410;2023-04-28T05:54:03;7.53;;;5.70;;
6013;SDS011;3035;49.928;8.410;2023-04-28T05:56:31;13.10;;;6.70;;
6013;SDS011;3035;49.928;8.410;2023-04-28T05:58:59;17.97;;;6.70;;
6013;SDS011;3035;49.928;8.410;2023-04-28T06:01:27;11.63;;;6.30;;
6013;SDS011;3035;49.928;8.410;2023-04-28T06:03:56;13.50;;;7.30;;
6013;SDS011;3035;49.928;8.410;2023-04-28T06:06:25;17.00;;;7.10;;
6013;SDS011;3035;49.928;8.410;2023-04-28T06:08:54;8.73;;;6.47;;
6013;SDS011;3035;49.928;8.410;2023-04-28T06:11:22;7.67;;;5.37;;
6013;SDS011;3035;49.928;8.410;2023-04-28T06:13:51;13.93;;;6.80;;
6013;SDS011;3035;49.928;8.410;2023-04-28T06:16:20;15.80;;;7.40;;
6013;SDS011;3035;49.928;8.410;2023-04-28T06:18:48;30.67;;;7.70;;
6013;SDS011;3035;49.928;8.410;2023-04-28T06:21:17;9.07;;;6.00;;
6013;SDS011;3035;49.928;8.410;2023-04-28T06:23:46;11.97;;;6.33;;
6013;SDS011;3035;49.928;8.410;2023-04-28T06:26:14;6.77;;;6.07;;
6013;SDS011;3035;49.928;8.410;2023-04-28T06:28:42;10.93;;;6.20;;
6013;SDS011;3035;49.928;8.410;2023-04-28T06:31:11;16.67;;;6.80;;
6013;SDS011;3035;49.928;8.410;2023-04-28T06:33:39;12.80;;;5.70;;
6013;SDS011;3035;49.928;8.410;2023-04-28T06:36:08;9.70;;;6.40;;
6013;SDS011;3035;49.928;8.410;2023-04-28T06:38:36;13.43;;;6.77;;
6013;SDS011;3035;49.928;8.410;2023-04-28T06:41:04;7.10;;;6.07;;
6013;SDS011;3035;49.928;8.410;2023-04-28T06:43:33;12.97;;;6.93;;
6013;SDS011;3035;49.928;8.410;2023-04-28T06:46:02;9.40;;;6.70;;
6013;SDS011;3035;49.928;8.410;2023-04-28T06:48:30;11.20;;;7.60;;
6013;SDS011;3035;49.928;8.410;2023-04-28T06:50:59;9.53;;;7.03;;
6013;SDS011;3035;49.928;8.410;2023-04-28T06:53:27;14.20;;;7.60;;
6013;SDS011;3035;49.928;8.410;2023-04-28T06:55:55;18.00;;;8.33;;
6013;SDS011;3035;49.928;8.410;2023-04-28T06:58:23;13.60;;;8.07;;
6013;SDS011;3035;49.928;8.410;2023-04-28T07:00:51;11.30;;;7.80;;
6013;SDS011;3035;49.928;8.410;2023-04-28T07:03:20;13.03;;;7.97;;
6013;SDS011;3035;49.928;8.410;2023-04-28T07:05:48;10.07;;;7.30;;
6013;SDS011;3035;49.928;8.410;2023-04-28T07:08:16;12.63;;;7.13;;
6013;SDS011;3035;49.928;8.410;2023-04-28T07:10:44;10.30;;;6.50;;
6013;SDS011;3035;49.928;8.410;2023-04-28T07:13:12;12.60;;;8.00;;
6013;SDS011;3035;49.928;8.410;2023-04-28T07:15:42;9.53;;;6.70;;
6013;SDS011;3035;49.928;8.410;2023-04-28T07:18:10;14.80;;;7.80;;
6013;SDS011;3035;49.928;8.410;2023-04-28T07:20:39;15.30;;;8.07;;
6013;SDS011;3035;49.928;8.410;2023-04-28T07:23:08;15.03;;;7.77;;
6013;SDS011;3035;49.928;8.410;2023-04-28T07:25:38;18.40;;;8.97;;
6013;SDS011;3035;49.928;8.410;2023-04-28T07:28:07;13.13;;;7.80;;
6013;SDS011;3035;49.928;8.410;2023-04-28T07:30:35;15.70;;;8.93;;
6013;SDS011;3035;49.928;8.410;2023-04-28T07:33:03;12.23;;;8.30;;
6013;SDS011;3035;49.928;8.410;2023-04-28T07:35:33;11.90;;;8.47;;
6013;SDS011;3035;49.928;8.410;2023-04-28T07:38:01;12.87;;;8.20;;
6013;SDS011;3035;49.928;8.410;2023-04-28T07:40:29;16.23;;;7.60;;
6013;SDS011;3035;49.928;8.410;2023-04-28T07:42:57;14.10;;;7.90;;
6013;SDS011;3035;49.928;8.410;2023-04-28T07:45:25;17.10;;;7.83;;
6013;SDS011;3035;49.928;8.410;2023-04-28T07:47:54;16.20;;;8.20;;
6013;SDS011;3035;49.928;8.410;2023-04-28T07:50:22;19.70;;;8.23;;
6013;SDS011;3035;49.928;8.410;2023-04-28T07:52:50;14.60;;;9.30;;
6013;SDS011;3035;49.928;8.410;2023-04-28T07:55:19;11.93;;;8.30;;
6013;SDS011;3035;49.928;8.410;2023-04-28T07:57:47;12.67;;;8.17;;
6013;SDS011;3035;49.928;8.410;2023-04-28T08:00:16;17.53;;;7.60;;
6013;SDS011;3035;49.928;8.410;2023-04-28T08:02:44;13.23;;;8.83;;
6013;SDS011;3035;49.928;8.410;2023-04-28T08:05:13;11.80;;;8.10;;
6013;SDS011;3035;49.928;8.410;2023-04-28T08:07:41;12.90;;;8.87;;
6013;SDS011;3035;49.928;8.410;2023-04-28T08:10:09;12.57;;;8.77;;
6013;SDS011;3035;49.928;8.410;2023-04-28T08:12:38;14.53;;;9.20;;
6013;SDS011;3035;49.928;8.410;2023-04-28T08:15:08;14.73;;;8.53;;
6013;SDS011;3035;49.928;8.410;2023-04-28T08:17:35;15.60;;;11.03;;
6013;SDS011;3035;49.928;8.410;2023-04-28T08:20:04;14.17;;;9.53;;
6013;SDS011;3035;49.928;8.410;2023-04-28T08:22:33;17.23;;;10.50;;
6013;SDS011;3035;49.928;8.410;2023-04-28T08:25:01;14.70;;;10.27;;
6013;SDS011;3035;49.928;8.410;2023-04-28T08:27:29;16.10;;;9.73;;
6013;SDS011;3035;49.928;8.410;2023-04-28T08:29:59;12.67;;;9.30;;
6013;SDS011;3035;49.928;8.410;2023-04-28T08:32:27;18.30;;;10.20;;
6013;SDS011;3035;49.928;8.410;2023-04-28T08:34:55;15.10;;;10.60;;
6013;SDS011;3035;49.928;8.410;2023-04-28T08:37:23;14.10;;;10.50;;
6013;SDS011;3035;49.928;8.410;2023-04-28T08:39:51;15.43;;;11.83;;
6013;SDS011;3035;49.928;8.410;2023-04-28T08:42:21;13.87;;;10.80;;
6013;SDS011;3035;49.928;8.410;2023-04-28T08:44:49;19.50;;;13.80;;
6013;SDS011;3035;49.928;8.410;2023-04-28T08:47:18;14.13;;;11.47;;
6013;SDS011;3035;49.928;8.410;2023-04-28T08:49:47;13.90;;;11.00;;
6013;SDS011;3035;49.928;8.410;2023-04-28T08:52:16;15.70;;;11.30;;
6013;SDS011;3035;49.928;8.410;2023-04-28T08:54:45;18.33;;;11.20;;
6013;SDS011;3035;49.928;8.410;2023-04-28T08:57:13;13.77;;;11.57;;
6013;SDS011;3035;49.928;8.410;2023-04-28T08:59:42;18.27;;;11.00;;
6013;SDS011;3035;49.928;8.410;2023-04-28T09:02:10;17.73;;;11.10;;
6013;SDS011;3035;49.928;8.410;2023-04-28T09:04:39;16.43;;;11.37;;
6013;SDS011;3035;49.928;8.410;2023-04-28T09:07:10;17.60;;;11.13;;
6013;SDS011;3035;49.928;8.410;2023-04-28T09:09:38;17.27;;;11.70;;
6013;SDS011;3035;49.928;8.410;2023-04-28T09:12:06;15.63;;;11.73;;
6013;SDS011;3035;49.928;8.410;2023-04-28T09:14:35;24.73;;;13.60;;
6013;SDS011;3035;49.928;8.410;2023-04-28T09:17:09;20.27;;;13.80;;
6013;SDS011;3035;49.928;8.410;2023-04-28T09:19:37;21.43;;;12.67;;
6013;SDS011;3035;49.928;8.410;2023-04-28T09:22:06;18.43;;;12.60;;
6013;SDS011;3035;49.928;8.410;2023-04-28T09:24:38;18.73;;;13.67;;
6013;SDS011;3035;49.928;8.410;2023-04-28T09:27:07;28.23;;;14.13;;
6013;SDS011;3035;49.928;8.410;2023-04-28T09:29:34;17.10;;;11.80;;
6013;SDS011;3035;49.928;8.410;2023-04-28T09:34:45;22.83;;;14.37;;
6013;SDS011;3035;49.928;8.410;2023-04-28T09:37:18;19.50;;;13.97;;
6013;SDS011;3035;49.928;8.410;2023-04-28T09:39:46;17.93;;;13.10;;
6013;SDS011;3035;49.928;8.410;2023-04-28T09:45:04;18.93;;;14.20;;
6013;SDS011;3035;49.928;8.410;2023-04-28T09:47:35;17.27;;;14.57;;
6013;SDS011;3035;49.928;8.410;2023-04-28T09:50:03;18.80;;;14.67;;
6013;SDS011;3035;49.928;8.410;2023-04-28T09:52:33;19.97;;;14.50;;
6013;SDS011;3035;49.928;8.410;2023-04-28T09:55:03;20.33;;;14.80;;
6013;SDS011;3035;49.928;8.410;2023-04-28T09:57:30;22.73;;;15.50;;
6013;SDS011;3035;49.928;8.410;2023-04-28T09:59:59;18.43;;;14.40;;
6013;SDS011;3035;49.928;8.410;2023-04-28T10:02:27;18.13;;;14.97;;
6013;SDS011;3035;49.928;8.410;2023-04-28T10:04:56;25.37;;;14.17;;
6013;SDS011;3035;49.928;8.410;2023-04-28T10:07:24;16.87;;;14.00;;
6013;SDS011;3035;49.928;8.410;2023-04-28T10:09:53;15.80;;;12.40;;
6013;SDS011;3035;49.928;8.410;2023-04-28T10:12:22;16.60;;;14.30;;
6013;SDS011;3035;49.928;8.410;2023-04-28T10:14:51;19.80;;;13.67;;
6013;SDS011;3035;49.928;8.410;2023-04-28T10:17:20;20.63;;;13.70;;
6013;SDS011;3035;49.928;8.410;2023-04-28T10:19:49;17.83;;;13.57;;
6013;SDS011;3035;49.928;8.410;2023-04-28T10:25:14;16.17;;;12.90;;
6013;SDS011;3035;49.928;8.410;2023-04-28T10:27:44;16.50;;;13.50;;
6013;SDS011;3035;49.928;8.410;2023-04-28T10:30:13;19.80;;;13.33;;
6013;SDS011;3035;49.928;8.410;2023-04-28T10:32:43;18.07;;;12.47;;
6013;SDS011;3035;49.928;8.410;2023-04-28T10:38:11;16.03;;;13.03;;
6013;SDS011;3035;49.928;8.410;2023-04-28T10:40:41;17.53;;;12.23;;
6013;SDS011;3035;49.928;8.410;2023-04-28T10:43:13;16.03;;;12.73;;
6013;SDS011;3035;49.928;8.410;2023-04-28T10:46:00;17.27;;;12.87;;
6013;SDS011;3035;49.928;8.410;2023-04-28T10:51:22;19.00;;;14.90;;
6013;SDS011;3035;49.928;8.410;2023-04-28T10:56:34;17.83;;;13.20;;
6013;SDS011;3035;49.928;8.410;2023-04-28T10:59:02;18.50;;;14.43;;
6013;SDS011;3035;49.928;8.410;2023-04-28T11:01:31;17.87;;;13.33;;
6013;SDS011;3035;49.928;8.410;2023-04-28T11:04:04;19.17;;;14.50;;
6013;SDS011;3035;49.928;8.410;2023-04-28T11:06:35;17.90;;;12.90;;
6013;SDS011;3035;49.928;8.410;2023-04-28T11:12:05;18.90;;;13.37;;
6013;SDS011;3035;49.928;8.410;2023-04-28T11:14:34;17.80;;;13.33;;
6013;SDS011;3035;49.928;8.410;2023-04-28T11:17:02;15.33;;;11.53;;
6013;SDS011;3035;49.928;8.410;2023-04-28T11:19:32;11.87;;;10.33;;
6013;SDS011;3035;49.928;8.410;2023-04-28T11:22:01;14.30;;;11.30;;
6013;SDS011;3035;49.928;8.410;2023-04-28T11:24:31;15.57;;;11.83;;
6013;SDS011;3035;49.928;8.410;2023-04-28T11:26:59;14.90;;;12.83;;
6013;SDS011;3035;49.928;8.410;2023-04-28T11:29:32;24.53;;;15.40;;
6013;SDS011;3035;49.928;8.410;2023-04-28T11:32:02;18.90;;;13.30;;
6013;SDS011;3035;49.928;8.410;2023-04-28T11:34:31;15.27;;;12.47;;
6013;SDS011;3035;49.928;8.410;2023-04-28T11:36:59;22.80;;;13.73;;
6013;SDS011;3035;49.928;8.410;2023-04-28T11:39:29;15.97;;;13.27;;
6013;SDS011;3035;49.928;8.410;2023-04-28T11:41:58;18.40;;;14.40;;
6013;SDS011;3035;49.928;8.410;2023-04-28T11:44:28;17.60;;;13.87;;
6013;SDS011;3035;49.928;8.410;2023-04-28T11:46:57;19.53;;;14.33;;
6013;SDS011;3035;49.928;8.410;2023-04-28T11:49:29;17.63;;;13.10;;
6013;SDS011;3035;49.928;8.410;2023-04-28T11:51:56;17.50;;;13.80;;
6013;SDS011;3035;49.928;8.410;2023-04-28T11:54:26;20.60;;;14.23;;
6013;SDS011;3035;49.928;8.410;2023-04-28T11:56:54;18.73;;;13.60;;
6013;SDS011;3035;49.928;8.410;2023-04-28T11:59:24;16.73;;;13.57;;
6013;SDS011;3035;49.928;8.410;2023-04-28T12:01:53;18.10;;;14.20;;
6013;SDS011;3035;49.928;8.410;2023-04-28T12:04:26;17.53;;;13.37;;
6013;SDS011;3035;49.928;8.410;2023-04-28T12:07:08;16.90;;;13.20;;
6013;SDS011;3035;49.928;8.410;2023-04-28T12:09:39;19.63;;;13.73;;
6013;SDS011;3035;49.928;8.410;2023-04-28T12:12:11;20.87;;;14.33;;
6013;SDS011;3035;49.928;8.410;2023-04-28T12:17:28;17.40;;;13.20;;
6013;SDS011;3035;49.928;8.410;2023-04-28T12:19:56;17.63;;;11.20;;
6013;SDS011;3035;49.928;8.410;2023-04-28T12:22:24;18.73;;;11.20;;
6013;SDS011;3035;49.928;8.410;2023-04-28T12:27:31;12.20;;;9.43;;
6013;SDS011;3035;49.928;8.410;2023-04-28T12:29:59;13.30;;;9.93;;
6013;SDS011;3035;49.928;8.410;2023-04-28T12:35:06;11.47;;;10.03;;
6013;SDS011;3035;49.928;8.410;2023-04-28T12:37:35;11.70;;;8.90;;
6013;SDS011;3035;49.928;8.410;2023-04-28T12:40:06;15.00;;;9.00;;
6013;SDS011;3035;49.928;8.410;2023-04-28T12:42:36;11.23;;;9.13;;
6013;SDS011;3035;49.928;8.410;2023-04-28T12:45:04;12.30;;;10.97;;
6013;SDS011;3035;49.928;8.410;2023-04-28T12:47:34;21.00;;;9.40;;
6013;SDS011;3035;49.928;8.410;2023-04-28T12:50:02;18.10;;;10.80;;
6013;SDS011;3035;49.928;8.410;2023-04-28T12:52:32;12.77;;;11.50;;
6013;SDS011;3035;49.928;8.410;2023-04-28T12:55:01;18.43;;;9.57;;
6013;SDS011;3035;49.928;8.410;2023-04-28T12:57:29;9.20;;;8.30;;
6013;SDS011;3035;49.928;8.410;2023-04-28T12:59:58;11.83;;;9.63;;
6013;SDS011;3035;49.928;8.410;2023-04-28T13:02:26;11.03;;;9.77;;
6013;SDS011;3035;49.928;8.410;2023-04-28T13:04:55;13.73;;;9.83;;
6013;SDS011;3035;49.928;8.410;2023-04-28T13:07:24;10.20;;;8.90;;
6013;SDS011;3035;49.928;8.410;2023-04-28T13:09:54;8.83;;;7.93;;
6013;SDS011;3035;49.928;8.410;2023-04-28T13:12:21;9.87;;;8.10;;
6013;SDS011;3035;49.928;8.410;2023-04-28T13:14:50;11.70;;;9.20;;
6013;SDS011;3035;49.928;8.410;2023-04-28T13:17:19;11.63;;;8.60;;
6013;SDS011;3035;49.928;8.410;2023-04-28T13:19:47;16.47;;;9.67;;
6013;SDS011;3035;49.928;8.410;2023-04-28T13:22:16;9.97;;;8.83;;
6013;SDS011;3035;49.928;8.410;2023-04-28T13:24:44;8.80;;;7.87;;
6013;SDS011;3035;49.928;8.410;2023-04-28T13:27:12;7.57;;;6.07;;
6013;SDS011;3035;49.928;8.410;2023-04-28T13:29:40;7.03;;;5.13;;
6013;SDS011;3035;49.928;8.410;2023-04-28T13:32:09;6.80;;;5.67;;
6013;SDS011;3035;49.928;8.410;2023-04-28T13:34:38;7.03;;;5.50;;
6013;SDS011;3035;49.928;8.410;2023-04-28T13:37:07;9.30;;;4.27;;
6013;SDS011;3035;49.928;8.410;2023-04-28T13:39:35;8.23;;;4.87;;
6013;SDS011;3035;49.928;8.410;2023-04-28T13:42:03;6.00;;;5.40;;
6013;SDS011;3035;49.928;8.410;2023-04-28T13:44:32;4.57;;;4.17;;
6013;SDS011;3035;49.928;8.410;2023-04-28T13:47:00;5.33;;;4.83;;
6013;SDS011;3035;49.928;8.410;2023-04-28T13:49:29;5.27;;;4.50;;
6013;SDS011;3035;49.928;8.410;2023-04-28T13:51:58;13.83;;;4.57;;
6013;SDS011;3035;49.928;8.410;2023-04-28T13:54:26;6.70;;;4.77;;
6013;SDS011;3035;49.928;8.410;2023-04-28T13:56:54;6.60;;;5.80;;
6013;SDS011;3035;49.928;8.410;2023-04-28T13:59:22;6.03;;;5.43;;
6013;SDS011;3035;49.928;8.410;2023-04-28T14:01:50;5.67;;;5.10;;
6013;SDS011;3035;49.928;8.410;2023-04-28T14:04:19;6.77;;;5.40;;
6013;SDS011;3035;49.928;8.410;2023-04-28T14:06:48;6.50;;;5.90;;
6013;SDS011;3035;49.928;8.410;2023-04-28T14:09:17;9.33;;;7.93;;
6013;SDS011;3035;49.928;8.410;2023-04-28T14:11:45;9.50;;;8.00;;
6013;SDS011;3035;49.928;8.410;2023-04-28T14:14:14;11.50;;;8.97;;
6013;SDS011;3035;49.928;8.410;2023-04-28T14:16:42;9.17;;;7.93;;
6013;SDS011;3035;49.928;8.410;2023-04-28T14:19:10;10.40;;;9.40;;
6013;SDS011;3035;49.928;8.410;2023-04-28T14:21:39;13.90;;;8.80;;
6013;SDS011;3035;49.928;8.410;2023-04-28T14:24:07;12.10;;;7.80;;
6013;SDS011;3035;49.928;8.410;2023-04-28T14:26:36;8.07;;;7.27;;
6013;SDS011;3035;49.928;8.410;2023-04-28T14:29:05;7.30;;;6.50;;
6013;SDS011;3035;49.928;8.410;2023-04-28T14:31:33;7.57;;;6.67;;
6013;SDS011;3035;49.928;8.410;2023-04-28T14:34:01;7.57;;;6.83;;
6013;SDS011;3035;49.928;8.410;2023-04-28T14:36:31;7.87;;;6.00;;
6013;SDS011;3035;49.928;8.410;2023-04-28T14:38:59;6.50;;;5.90;;
6013;SDS011;3035;49.928;8.410;2023-04-28T14:41:27;7.07;;;5.97;;
6013;SDS011;3035;49.928;8.410;2023-04-28T14:43:55;6.13;;;5.23;;
6013;SDS011;3035;49.928;8.410;2023-04-28T14:46:23;9.50;;;5.10;;
6013;SDS011;3035;49.928;8.410;2023-04-28T14:48:52;5.93;;;4.83;;
6013;SDS011;3035;49.928;8.410;2023-04-28T14:51:21;7.53;;;4.80;;
6013;SDS011;3035;49.928;8.410;2023-04-28T14:53:50;5.00;;;4.50;;
6013;SDS011;3035;49.928;8.410;2023-04-28T14:56:18;3.80;;;3.50;;
6013;SDS011;3035;49.928;8.410;2023-04-28T14:58:46;4.30;;;3.90;;
6013;SDS011;3035;49.928;8.410;2023-04-28T15:01:15;5.43;;;3.40;;
6013;SDS011;3035;49.928;8.410;2023-04-28T15:03:44;3.40;;;3.10;;
6013;SDS011;3035;49.928;8.410;2023-04-28T15:06:13;3.90;;;3.50;;
6013;SDS011;3035;49.928;8.410;2023-04-28T15:08:41;2.70;;;2.50;;
6013;SDS011;3035;49.928;8.410;2023-04-28T15:11:10;2.77;;;2.57;;
6013;SDS011;3035;49.928;8.410;2023-04-28T15:13:38;3.20;;;2.43;;
6013;SDS011;3035;49.928;8.410;2023-04-28T15:16:06;2.73;;;2.50;;
6013;SDS011;3035;49.928;8.410;2023-04-28T15:18:35;7.40;;;3.97;;
6013;SDS011;3035;49.928;8.410;2023-04-28T15:21:03;3.30;;;2.73;;
6013;SDS011;3035;49.928;8.410;2023-04-28T15:23:31;3.23;;;2.30;;
6013;SDS011;3035;49.928;8.410;2023-04-28T15:25:59;2.27;;;2.07;;
6013;SDS011;3035;49.928;8.410;2023-04-28T15:28:27;4.40;;;2.33;;
6013;SDS011;3035;49.928;8.410;2023-04-28T15:30:56;3.57;;;2.80;;
6013;SDS011;3035;49.928;8.410;2023-04-28T15:33:24;3.67;;;2.53;;
6013;SDS011;3035;49.928;8.410;2023-04-28T15:35:52;11.20;;;2.50;;
6013;SDS011;3035;49.928;8.410;2023-04-28T15:38:20;3.83;;;1.90;;
6013;SDS011;3035;49.928;8.410;2023-04-28T15:40:49;4.40;;;1.93;;
6013;SDS011;3035;49.928;8.410;2023-04-28T15:43:17;2.10;;;1.87;;